Time;durP1;ratioP1;P1;durP2;ratioP2;P2;SDS_P1;SDS_P2;PMS_P1;PMS_P2;Temp;Humidity;BMP_temperature;BMP_pressure;BME280_temperature;BME280_humidity;BME280_pressure;Samples;Min_cycle;Max_cycle;Signal;HPM_P1;HPM_P2
2021/12/03 00:02:07;;;;;;;23.50;9.40;;;;;;;5.53;64.36;99336.80;125412;1099;105661;-82
2021/12/03 00:04:44;;;;;;;19.67;9.07;;;;;;;5.52;64.65;99339.34;125288;1099;104407;-82
2021/12/03 00:07:16;;;;;;;24.13;10.10;;;;;;;5.50;64.32;99349.70;125257;1099;104146;-83
2021/12/03 00:09:48;;;;;;;20.43;8.93;;;;;;;5.51;64.39;99354.05;126235;1099;104189;-83
2021/12/03 00:12:22;;;;;;;24.17;10.50;;;;;;;5.52;64.30;99358.44;126164;1098;104216;-83
2021/12/03 00:14:55;;;;;;;20.52;9.25;;;;;;;5.54;64.28;99356.77;126154;1099;104229;-80
2021/12/03 00:17:32;;;;;;;18.80;8.73;;;;;;;5.58;64.64;99361.27;126082;1097;104149;-80
2021/12/03 00:20:10;;;;;;;21.00;8.80;;;;;;;5.58;64.37;99347.38;126068;1099;105207;-80
2021/12/03 00:22:42;;;;;;;20.70;8.43;;;;;;;5.58;64.77;99345.66;126063;1099;104153;-80
2021/12/03 00:25:20;;;;;;;20.27;9.43;;;;;;;5.58;64.90;99342.17;126105;1099;104153;-80
2021/12/03 00:27:57;;;;;;;20.60;8.80;;;;;;;5.57;64.44;99348.20;126315;1099;104165;-82
2021/12/03 00:30:38;;;;;;;24.33;9.43;;;;;;;5.55;64.35;99352.47;126323;1099;104137;-83
2021/12/03 00:33:10;;;;;;;20.77;8.80;;;;;;;5.55;64.69;99347.27;126280;1099;104146;-83
2021/12/03 00:35:42;;;;;;;21.47;9.60;;;;;;;5.54;64.72;99346.36;126370;1099;104147;-83
2021/12/03 00:38:18;;;;;;;21.03;8.47;;;;;;;5.53;64.93;99339.40;126309;1098;104140;-84
2021/12/03 00:40:56;;;;;;;17.33;7.70;;;;;;;5.55;64.52;99334.25;126328;1099;104158;-82
2021/12/03 00:43:30;;;;;;;19.73;9.07;;;;;;;5.60;64.69;99331.82;126224;1099;104268;-82
2021/12/03 00:46:06;;;;;;;18.17;7.67;;;;;;;5.62;65.03;99328.42;126306;1099;104245;-81
2021/12/03 00:48:41;;;;;;;19.00;8.53;;;;;;;5.62;64.72;99323.22;126355;1099;104194;-83
2021/12/03 00:51:13;;;;;;;21.07;8.20;;;;;;;5.63;64.63;99326.73;126331;1099;104146;-82
2021/12/03 00:53:48;;;;;;;20.23;8.07;;;;;;;5.59;64.84;99325.70;126304;1099;104294;-82
2021/12/03 00:56:23;;;;;;;16.67;7.57;;;;;;;5.59;65.14;99320.50;126207;1099;119105;-82
2021/12/03 00:58:55;;;;;;;16.77;7.37;;;;;;;5.56;64.73;99321.30;126332;1099;104252;-81
2021/12/03 01:01:27;;;;;;;16.70;7.17;;;;;;;5.55;65.26;99316.03;126259;1099;105144;-81
2021/12/03 01:03:59;;;;;;;18.23;7.27;;;;;;;5.54;64.85;99316.86;126320;1099;104165;-82
2021/12/03 01:06:33;;;;;;;18.03;7.20;;;;;;;5.53;65.40;99304.66;126325;1099;104235;-82
2021/12/03 01:09:05;;;;;;;17.13;6.47;;;;;;;5.54;64.80;99298.64;126364;1099;104264;-82
2021/12/03 01:11:37;;;;;;;15.53;6.27;;;;;;;5.55;65.63;99292.62;126272;1099;104230;-83
2021/12/03 01:14:12;;;;;;;17.67;6.40;;;;;;;5.56;65.01;99289.16;126345;1099;104631;-82
2021/12/03 01:16:45;;;;;;;14.50;6.57;;;;;;;5.56;65.51;99282.27;126281;1099;111955;-83
2021/12/03 01:19:24;;;;;;;16.10;6.63;;;;;;;5.55;65.50;99290.89;126361;1098;104219;-82
2021/12/03 01:22:07;;;;;;;14.67;6.43;;;;;;;5.53;65.28;99289.96;126362;1099;104287;-81
2021/12/03 01:24:41;;;;;;;16.37;6.60;;;;;;;5.51;65.41;99280.31;126279;1099;104297;-82
2021/12/03 01:27:26;;;;;;;16.70;6.60;;;;;;;5.47;64.90;99279.33;126356;1098;104143;-82
2021/12/03 01:30:00;;;;;;;15.47;6.53;;;;;;;5.48;65.17;99280.20;126328;1099;104153;-83
2021/12/03 01:32:32;;;;;;;13.18;6.30;;;;;;;5.46;65.24;99287.08;126360;1099;104242;-82
2021/12/03 01:35:05;;;;;;;13.53;5.80;;;;;;;5.46;65.34;99295.76;126342;1099;104143;-82
2021/12/03 01:37:42;;;;;;;17.70;6.33;;;;;;;5.47;65.47;99294.03;126295;1099;107521;-82
2021/12/03 01:40:23;;;;;;;13.37;5.83;;;;;;;5.50;65.75;99283.73;126339;1099;104166;-82
2021/12/03 01:42:59;;;;;;;15.33;6.60;;;;;;;5.52;65.39;99275.17;126309;1099;104159;-82
2021/12/03 01:45:41;;;;;;;15.00;6.70;;;;;;;5.55;65.64;99275.28;126258;1099;104185;-82
2021/12/03 01:48:16;;;;;;;17.53;6.87;;;;;;;5.56;65.48;99276.16;126361;1099;104251;-83
2021/12/03 01:50:51;;;;;;;14.97;6.77;;;;;;;5.55;65.38;99277.01;126325;1099;104246;-83
2021/12/03 01:56:55;;;;;;;19.03;7.00;;;;;;;5.50;65.64;99260.32;126242;1099;104162;-82
2021/12/03 01:59:50;;;;;;;15.97;6.37;;;;;;;5.47;65.79;99258.52;126301;1099;104207;-82
2021/12/03 02:02:34;;;;;;;14.30;5.90;;;;;;;5.44;66.02;99253.20;126316;1099;104252;-83
2021/12/03 02:05:07;;;;;;;16.47;6.23;;;;;;;5.43;65.86;99255.74;126354;1099;104239;-83
2021/12/03 02:08:18;;;;;;;15.68;5.70;;;;;;;5.42;65.85;99262.64;126214;1099;104213;-81
2021/12/03 02:10:50;;;;;;;15.00;6.20;;;;;;;5.47;65.76;99261.11;126334;1099;104146;-81
2021/12/03 02:13:27;;;;;;;13.67;5.97;;;;;;;5.50;65.67;99260.32;126328;1099;104223;-83
2021/12/03 02:16:01;;;;;;;12.50;5.77;;;;;;;5.52;66.16;99256.95;126288;1099;104729;-83
2021/12/03 02:18:33;;;;;;;14.10;6.00;;;;;;;5.50;66.16;99256.02;126262;1099;104284;-83
2021/12/03 02:21:18;;;;;;;13.77;6.40;;;;;;;5.49;66.05;99256.84;126321;1099;104156;-83
2021/12/03 02:23:56;;;;;;;12.55;5.65;;;;;;;5.47;66.21;99255.00;126335;1099;104325;-83
2021/12/03 02:26:27;;;;;;;14.17;6.30;;;;;;;5.43;66.02;99255.74;126358;1099;104207;-83
2021/12/03 02:29:05;;;;;;;14.93;6.03;;;;;;;5.38;66.29;99251.25;126337;1098;104158;-83
2021/12/03 02:31:46;;;;;;;13.97;5.70;;;;;;;5.37;66.30;99256.39;126296;1099;104258;-84
2021/12/03 02:34:21;;;;;;;15.63;6.40;;;;;;;5.33;66.31;99250.20;126348;1099;104144;-83
2021/12/03 02:36:59;;;;;;;13.60;6.13;;;;;;;5.31;65.99;99249.24;125183;1101;104185;-82
2021/12/03 02:39:40;;;;;;;14.70;6.33;;;;;;;5.30;66.31;99249.19;125290;1102;104143;-82
2021/12/03 02:42:13;;;;;;;11.63;5.70;;;;;;;5.29;66.10;99250.03;125284;1099;104300;-83
2021/12/03 02:44:48;;;;;;;15.20;6.10;;;;;;;5.27;66.30;99249.98;125228;1099;104328;-84
2021/12/03 02:47:23;;;;;;;13.50;5.80;;;;;;;5.27;66.18;99249.98;125335;1099;104150;-83
2021/12/03 02:49:56;;;;;;;13.20;5.80;;;;;;;5.23;65.91;99245.48;125330;1102;104287;-82
2021/12/03 02:52:29;;;;;;;13.10;6.20;;;;;;;5.21;66.01;99249.75;125280;1102;104286;-84
2021/12/03 02:55:06;;;;;;;13.97;5.77;;;;;;;5.20;65.96;99251.48;125285;1099;104168;-83
2021/12/03 02:57:38;;;;;;;14.33;6.20;;;;;;;5.20;66.16;99253.17;125274;1099;104310;-84
2021/12/03 03:00:15;;;;;;;16.93;6.77;;;;;;;5.18;65.92;99245.31;125341;1099;104149;-83
2021/12/03 03:02:48;;;;;;;14.83;6.07;;;;;;;5.18;66.20;99244.44;125286;1099;104184;-83
2021/12/03 03:05:24;;;;;;;12.50;5.70;;;;;;;5.17;66.08;99242.66;125282;1099;104252;-83
2021/12/03 03:08:00;;;;;;;14.83;6.13;;;;;;;5.19;66.50;99238.42;125391;1099;104614;-84
2021/12/03 03:10:40;;;;;;;16.60;5.90;;;;;;;5.17;66.08;99250.45;126299;1099;102192;-83
2021/12/03 03:13:15;;;;;;;12.03;5.57;;;;;;;5.14;66.19;99240.84;126340;1099;104219;-83
2021/12/03 03:15:53;;;;;;;11.43;6.00;;;;;;;5.10;66.42;99233.75;126357;1099;104316;-82
2021/12/03 03:18:30;;;;;;;14.30;6.33;;;;;;;5.05;66.46;99230.10;126267;1099;104209;-82
2021/12/03 03:21:06;;;;;;;14.53;5.77;;;;;;;5.00;66.33;99232.53;126301;1099;104188;-82
2021/12/03 03:23:53;;;;;;;14.63;6.50;;;;;;;4.88;66.69;99213.87;126313;1099;104195;-84
2021/12/03 03:26:27;;;;;;;16.20;6.37;;;;;;;4.93;66.84;99214.92;126352;1099;104147;-84
2021/12/03 03:28:59;;;;;;;15.47;6.70;;;;;;;4.90;66.90;99222.60;126270;1099;104143;-84
2021/12/03 03:31:36;;;;;;;15.87;6.70;;;;;;;4.86;66.33;99215.50;126333;1099;104251;-83
2021/12/03 03:34:10;;;;;;;;;;;;;;;4.84;66.63;99222.37;126361;1099;104249;-84
2021/12/03 03:36:45;;;;;;;14.40;5.90;;;;;;;4.84;66.42;99223.24;126314;1099;104156;-83
2021/12/03 03:39:17;;;;;;;18.93;6.63;;;;;;;4.87;66.70;99219.88;126264;1099;104332;-84
2021/12/03 03:41:54;;;;;;;18.93;6.60;;;;;;;4.87;66.79;99217.28;126346;1099;104175;-83
2021/12/03 03:44:27;;;;;;;15.63;6.47;;;;;;;4.86;66.42;99210.30;126322;1099;104264;-82
2021/12/03 03:47:00;;;;;;;;;;;;;;;4.86;66.66;99218.10;126341;1099;104168;-83
2021/12/03 03:49:35;;;;;;;15.00;6.10;;;;;;;4.84;66.42;99222.37;126268;1099;104175;-84
2021/12/03 03:52:07;;;;;;;;;;;;;;;4.79;66.97;99216.12;126384;1099;104165;-84
2021/12/03 03:54:38;;;;;;;13.83;6.53;;;;;;;4.76;66.82;99222.08;126300;1099;104143;-83
2021/12/03 03:57:10;;;;;;;14.17;6.13;;;;;;;4.75;66.85;99222.02;126320;1099;104153;-83
2021/12/03 03:59:43;;;;;;;16.67;7.07;;;;;;;4.73;66.24;99216.76;126275;1099;104283;-83
2021/12/03 04:02:20;;;;;;;16.43;7.07;;;;;;;4.72;66.70;99212.41;126322;1099;104261;-83
2021/12/03 04:04:52;;;;;;;16.67;7.03;;;;;;;4.71;66.59;99201.95;126358;1099;104248;-83
2021/12/03 04:07:25;;;;;;;17.43;6.80;;;;;;;4.71;66.39;99205.43;126332;1099;104254;-83
2021/12/03 04:09:57;;;;;;;16.07;6.90;;;;;;;4.72;66.59;99198.51;126307;1099;104139;-83
2021/12/03 04:12:29;;;;;;;14.63;6.13;;;;;;;4.75;67.10;99203.82;126316;1099;104278;-83
2021/12/03 04:15:02;;;;;;;15.47;6.70;;;;;;;4.79;66.45;99205.72;126256;1099;104149;-83
2021/12/03 04:17:34;;;;;;;13.93;6.03;;;;;;;4.80;66.58;99195.38;126360;1099;104315;-84
2021/12/03 04:20:12;;;;;;;16.85;6.60;;;;;;;4.79;67.07;99200.52;126259;1099;104205;-84
2021/12/03 04:22:45;;;;;;;17.00;6.57;;;;;;;4.78;66.99;99193.55;126349;1099;105305;-82
2021/12/03 04:25:36;;;;;;;16.77;6.80;;;;;;;4.75;67.10;99198.63;126306;1099;104265;-84
2021/12/03 04:28:08;;;;;;;12.37;6.03;;;;;;;4.71;66.77;99201.95;126325;1099;104216;-83
2021/12/03 04:30:44;;;;;;;17.07;6.87;;;;;;;4.70;66.78;99200.17;126294;1099;104172;-85
2021/12/03 04:33:17;;;;;;;15.93;6.47;;;;;;;4.67;67.29;99198.33;126262;1099;104258;-83
2021/12/03 04:35:49;;;;;;;16.20;6.70;;;;;;;4.67;67.49;99185.34;126347;1099;104152;-83
2021/12/03 04:38:23;;;;;;;14.90;6.20;;;;;;;4.68;67.08;99182.80;126344;1099;104277;-83
2021/12/03 04:40:55;;;;;;;14.40;6.10;;;;;;;4.71;67.12;99174.25;126271;1097;104137;-81
2021/12/03 04:43:26;;;;;;;16.17;6.57;;;;;;;4.76;66.82;99174.42;126356;1099;104271;-81
2021/12/03 04:45:58;;;;;;;14.37;6.33;;;;;;;4.78;66.84;99177.95;126349;1099;104186;-82
2021/12/03 04:48:30;;;;;;;18.00;6.20;;;;;;;4.82;67.35;99167.73;126359;1099;104152;-81
2021/12/03 04:51:01;;;;;;;15.13;5.63;;;;;;;4.87;67.46;99170.50;126281;1099;104291;-81
2021/12/03 04:53:33;;;;;;;14.50;5.63;;;;;;;4.92;66.86;99165.47;126312;1099;104669;-81
2021/12/03 04:56:06;;;;;;;11.87;5.33;;;;;;;4.94;67.67;99154.31;126288;1099;104335;-81
2021/12/03 04:58:37;;;;;;;14.37;5.77;;;;;;;5.00;67.36;99164.03;126351;1099;104143;-80
2021/12/03 05:01:09;;;;;;;12.87;5.37;;;;;;;5.01;67.02;99164.08;126352;1098;104149;-81
2021/12/03 05:03:43;;;;;;;11.47;5.23;;;;;;;5.04;67.59;99172.00;126186;1099;104165;-81
2021/12/03 05:06:17;;;;;;;13.20;5.13;;;;;;;5.08;67.75;99183.41;126149;1099;104239;-81
2021/12/03 05:08:47;;;;;;;;;;;;;;;5.11;67.63;99191.33;126366;1099;104152;-81
2021/12/03 05:11:18;;;;;;;13.53;5.17;;;;;;;5.14;67.68;99178.44;126264;1099;104242;-80
2021/12/03 05:13:49;;;;;;;10.80;5.37;;;;;;;5.18;67.50;99175.09;126182;1099;105018;-81
2021/12/03 05:16:20;;;;;;;12.93;5.23;;;;;;;5.24;68.23;99184.84;126157;1099;104198;-80
2021/12/03 05:18:52;;;;;;;12.17;4.57;;;;;;;5.27;67.60;99197.96;125933;1099;104293;-81
2021/12/03 05:21:23;;;;;;;11.70;5.17;;;;;;;5.29;67.97;99190.21;125755;1099;104195;-81
2021/12/03 05:23:54;;;;;;;14.53;5.50;;;;;;;5.31;67.57;99197.22;125988;1099;104197;-79
2021/12/03 05:26:28;;;;;;;17.43;5.70;;;;;;;5.32;67.15;99204.20;126092;1099;104316;-80
2021/12/03 05:28:58;;;;;;;;;;;;;;;5.35;67.97;99204.31;126124;1099;104156;-80
2021/12/03 05:31:29;;;;;;;13.60;4.97;;;;;;;5.35;68.38;99193.91;126022;1098;104307;-80
2021/12/03 05:34:00;;;;;;;16.20;6.30;;;;;;;5.34;67.55;99191.25;126110;1099;104309;-82
2021/12/03 05:36:32;;;;;;;21.77;8.80;;;;;;;5.32;67.58;99195.52;126335;1099;104146;-82
2021/12/03 05:39:03;;;;;;;17.40;6.73;;;;;;;5.31;67.94;99185.94;126201;1099;104172;-81
2021/12/03 05:41:35;;;;;;;16.77;6.07;;;;;;;5.34;68.21;99194.73;125981;1099;104243;-82
2021/12/03 05:44:07;;;;;;;14.97;5.23;;;;;;;5.44;68.30;99192.45;125904;1099;104248;-80
2021/12/03 05:46:39;;;;;;;9.70;4.67;;;;;;;5.55;68.17;99193.73;126062;1099;104255;-81
2021/12/03 05:49:15;;;;;;;11.40;4.43;;;;;;;5.64;68.12;99195.75;125179;1099;104249;-83
2021/12/03 05:51:48;;;;;;;13.33;5.47;;;;;;;5.73;68.06;99201.27;125153;1102;104663;-79
2021/12/03 05:54:22;;;;;;;11.57;5.03;;;;;;;5.82;67.73;99198.11;125803;1099;104238;-81
2021/12/03 05:56:55;;;;;;;13.40;5.70;;;;;;;5.86;67.69;99202.56;125120;1100;104425;-80
2021/12/03 05:59:28;;;;;;;14.43;5.30;;;;;;;5.90;67.78;99196.64;125892;1099;104197;-79
2021/12/03 06:02:01;;;;;;;16.27;5.50;;;;;;;5.96;67.75;99203.78;125619;1099;104198;-80
2021/12/03 06:04:34;;;;;;;13.40;5.03;;;;;;;6.03;67.82;99193.66;125243;1102;104201;-80
2021/12/03 06:07:07;;;;;;;15.10;5.00;;;;;;;6.09;67.89;99196.47;125978;1099;104185;-80
2021/12/03 06:09:38;;;;;;;10.70;4.87;;;;;;;6.16;67.69;99196.66;125880;1099;104219;-81
2021/12/03 06:12:13;;;;;;;10.07;4.90;;;;;;;6.21;67.91;99208.11;125874;1099;103970;-80
2021/12/03 06:14:44;;;;;;;14.33;5.13;;;;;;;6.25;67.84;99210.86;125198;1099;104280;-78
2021/12/03 06:17:17;;;;;;;15.93;6.93;;;;;;;6.27;67.78;99206.57;125029;1102;104172;-80
2021/12/03 06:19:48;;;;;;;12.00;5.13;;;;;;;6.30;67.68;99217.09;125166;1102;104227;-80
2021/12/03 06:22:20;;;;;;;16.93;6.20;;;;;;;6.33;68.10;99211.11;125016;1102;104855;-80
2021/12/03 06:24:52;;;;;;;12.90;5.87;;;;;;;6.34;67.71;99215.46;125029;1102;104156;-81
2021/12/03 06:27:24;;;;;;;14.13;5.20;;;;;;;6.37;67.84;99223.37;125003;1102;104114;-80
2021/12/03 06:29:57;;;;;;;14.93;5.80;;;;;;;6.41;67.75;99220.05;124996;1101;104414;-80
2021/12/03 06:32:34;;;;;;;15.37;6.07;;;;;;;6.46;67.47;99223.67;124913;1102;104221;-79
2021/12/03 06:35:09;;;;;;;13.07;5.63;;;;;;;6.50;67.79;99213.34;124905;1102;104207;-81
2021/12/03 06:37:43;;;;;;;14.87;6.00;;;;;;;6.52;67.68;99228.20;124986;1102;104214;-82
2021/12/03 06:40:19;;;;;;;14.70;5.63;;;;;;;6.55;67.83;99227.42;125054;1102;104166;-79
2021/12/03 06:42:53;;;;;;;19.93;6.27;;;;;;;6.58;67.52;99222.31;124971;1103;102289;-80
2021/12/03 06:45:25;;;;;;;11.37;5.30;;;;;;;6.62;67.47;99218.94;125014;1102;102290;-80
2021/12/03 06:48:00;;;;;;;17.03;6.20;;;;;;;6.66;67.82;99220.81;125017;1102;104345;-80
2021/12/03 06:50:32;;;;;;;12.83;5.33;;;;;;;6.70;67.51;99222.69;124956;1100;104443;-81
2021/12/03 06:53:06;;;;;;;14.10;5.10;;;;;;;6.78;67.55;99215.98;125015;1099;104203;-80
2021/12/03 06:55:52;;;;;;;12.53;4.80;;;;;;;6.86;67.60;99220.52;125344;1099;102108;-82
2021/12/03 06:58:35;;;;;;;10.80;4.57;;;;;;;6.90;67.63;99223.27;125207;1099;104191;-80
2021/12/03 07:01:20;;;;;;;10.33;4.90;;;;;;;6.95;67.38;99220.80;125033;1099;104172;-80
2021/12/03 07:03:58;;;;;;;12.07;5.30;;;;;;;6.99;67.26;99230.48;125043;1102;104143;-81
2021/12/03 07:06:33;;;;;;;16.30;5.47;;;;;;;7.01;67.33;99226.19;125028;1099;104357;-81
2021/12/03 07:09:22;;;;;;;13.43;5.07;;;;;;;7.03;67.29;99221.92;125071;1099;104399;-82
2021/12/03 07:12:31;;;;;;;11.53;5.10;;;;;;;7.06;67.30;99224.63;125035;1099;104169;-83
2021/12/03 07:15:12;;;;;;;15.37;5.57;;;;;;;7.13;67.36;99223.94;124942;1099;104278;-83
2021/12/03 07:17:47;;;;;;;16.40;5.20;;;;;;;7.20;67.57;99225.03;125041;1099;104175;-83
2021/12/03 07:20:21;;;;;;;9.97;5.03;;;;;;;7.27;67.39;99228.69;125053;1099;104275;-81
2021/12/03 07:22:51;;;;;;;;;;;;;;;7.33;67.09;99229.73;125088;1099;104176;-81
2021/12/03 07:25:26;;;;;;;16.40;6.00;;;;;;;7.45;67.20;99233.52;125106;1099;104938;-81
2021/12/03 07:27:58;;;;;;;12.27;5.37;;;;;;;7.57;67.14;99241.70;125915;1099;104185;-79
2021/12/03 07:30:38;;;;;;;12.43;5.50;;;;;;;7.68;67.10;99244.60;125917;1099;104724;-81
2021/12/03 07:33:13;;;;;;;15.30;5.90;;;;;;;7.76;66.99;99234.36;125720;1099;104216;-80
2021/12/03 07:36:01;;;;;;;13.23;5.27;;;;;;;7.86;66.95;99226.81;125757;1098;104188;-79
2021/12/03 07:38:42;;;;;;;13.53;5.20;;;;;;;7.97;67.38;99237.55;125827;1099;104236;-81
2021/12/03 07:41:32;;;;;;;11.70;4.80;;;;;;;8.06;67.17;99226.45;125251;1099;104265;-81
2021/12/03 07:44:22;;;;;;;10.47;4.70;;;;;;;8.21;67.19;99229.45;125645;1099;104246;-80
2021/12/03 07:50:14;;;;;;;12.90;5.40;;;;;;;8.55;66.48;99222.43;125860;1099;104245;-82
2021/12/03 07:52:48;;;;;;;14.83;5.47;;;;;;;8.70;67.05;99215.81;125709;1099;104217;-82
2021/12/03 07:55:28;;;;;;;15.17;5.60;;;;;;;8.82;66.55;99208.23;125887;1099;104236;-81
2021/12/03 07:58:01;;;;;;;14.23;5.53;;;;;;;8.88;65.93;99213.61;126154;1099;104185;-81
2021/12/03 08:00:34;;;;;;;10.40;5.20;;;;;;;8.94;66.21;99220.69;125891;1099;104265;-80
2021/12/03 08:03:21;;;;;;;12.17;5.43;;;;;;;8.99;66.42;99217.33;125834;1099;104205;-80
2021/12/03 08:06:06;;;;;;;14.13;6.17;;;;;;;9.03;65.47;99228.73;125984;1099;104922;-79
2021/12/03 08:08:42;;;;;;;14.20;5.60;;;;;;;9.04;65.52;99216.52;125768;1099;104989;-80
2021/12/03 08:11:29;;;;;;;15.07;6.17;;;;;;;9.03;65.90;99220.88;125738;1099;104169;-80
2021/12/03 08:14:38;;;;;;;13.70;5.60;;;;;;;9.03;66.12;99227.86;125742;1099;104175;-81
2021/12/03 08:17:14;;;;;;;12.07;5.60;;;;;;;9.03;65.94;99235.71;125782;1099;104330;-79
2021/12/03 08:19:56;;;;;;;12.93;5.78;;;;;;;9.00;65.50;99239.13;125832;1099;104217;-79
2021/12/03 08:22:32;;;;;;;14.10;5.80;;;;;;;9.00;65.32;99237.39;125866;1099;104237;-78
2021/12/03 08:25:15;;;;;;;19.17;5.63;;;;;;;8.99;65.91;99224.27;125103;1099;104620;-80
2021/12/03 08:27:54;;;;;;;13.73;5.90;;;;;;;9.02;65.14;99226.08;125916;1099;104229;-81
2021/12/03 08:30:34;;;;;;;12.97;5.80;;;;;;;9.02;65.00;99231.31;125927;1099;104153;-81
2021/12/03 08:33:09;;;;;;;14.47;5.67;;;;;;;9.07;65.60;99221.83;125253;1099;104957;-80
2021/12/03 08:35:44;;;;;;;14.57;6.17;;;;;;;9.11;65.35;99224.53;125980;1099;104329;-82
2021/12/03 08:38:16;;;;;;;17.60;6.30;;;;;;;9.18;64.95;99228.19;125982;1099;104210;-80
2021/12/03 08:40:50;;;;;;;14.83;5.53;;;;;;;9.28;64.88;99227.51;125955;1099;104146;-79
2021/12/03 08:43:28;;;;;;;13.25;5.80;;;;;;;9.33;64.41;99232.84;126030;1099;104219;-79
2021/12/03 08:46:53;;;;;;;11.57;5.17;;;;;;;9.40;64.57;99228.63;126496;1099;118620;-82
2021/12/03 08:49:54;;;;;;;14.83;5.80;;;;;;;9.44;64.47;99225.20;126100;1099;104137;-82
2021/12/03 08:52:45;;;;;;;12.73;5.37;;;;;;;9.44;64.82;99225.20;126073;1099;104130;-82
2021/12/03 08:55:32;;;;;;;13.97;5.40;;;;;;;9.46;64.14;99221.77;126066;1099;104229;-82
2021/12/03 08:58:07;;;;;;;12.27;5.23;;;;;;;9.47;64.28;99220.93;126285;1099;104222;-82
2021/12/03 09:03:30;;;;;;;17.10;5.70;;;;;;;9.57;63.98;99235.08;125153;1099;104261;-79
2021/12/03 09:06:08;;;;;;;14.55;5.37;;;;;;;9.66;63.69;99234.34;125953;1098;104245;-80
2021/12/03 09:08:54;;;;;;;12.85;5.40;;;;;;;9.75;64.10;99238.89;125794;1099;104198;-80
2021/12/03 09:11:30;;;;;;;13.03;5.77;;;;;;;9.79;63.45;99225.01;125086;1099;104248;-79
2021/12/03 09:14:11;;;;;;;11.80;5.20;;;;;;;9.83;63.13;99219.85;125896;1099;104149;-79
2021/12/03 09:17:01;;;;;;;10.50;5.33;;;;;;;9.87;62.85;99224.27;126050;1099;104175;-79
2021/12/03 09:19:46;;;;;;;14.83;5.10;;;;;;;9.94;62.70;99219.14;125277;1098;104191;-79
2021/12/03 09:22:29;;;;;;;10.07;5.20;;;;;;;9.93;62.71;99228.75;126215;1099;104220;-78
2021/12/03 09:25:02;;;;;;;10.87;4.63;;;;;;;10.00;62.56;99216.63;126586;1099;101829;-80
2021/12/03 09:27:53;;;;;;;10.37;5.03;;;;;;;10.07;62.88;99211.52;126129;1099;104043;-83
2021/12/03 09:30:44;;;;;;;12.67;5.07;;;;;;;10.15;62.74;99218.64;126163;1099;102093;-80
2021/12/03 09:33:32;;;;;;;10.95;5.15;;;;;;;10.20;63.00;99211.73;126288;1099;104152;-81
2021/12/03 09:36:06;;;;;;;14.43;5.50;;;;;;;10.25;62.57;99205.72;125934;1099;104159;-80
2021/12/03 09:38:42;;;;;;;14.77;5.47;;;;;;;10.34;62.51;99194.51;125696;1099;104169;-81
2021/12/03 09:41:28;;;;;;;12.90;5.27;;;;;;;10.39;62.13;99190.23;126063;1099;102710;-80
2021/12/03 09:44:34;;;;;;;12.37;5.33;;;;;;;10.48;62.28;99197.34;126053;1099;104271;-80
2021/12/03 09:47:15;;;;;;;10.30;5.03;;;;;;;10.58;62.52;99194.02;126082;1099;105554;-77
2021/12/03 09:49:57;;;;;;;11.67;5.17;;;;;;;10.68;61.56;99189.77;125331;1099;103413;-79
2021/12/03 09:52:37;;;;;;;10.38;4.70;;;;;;;10.76;60.43;99196.00;125377;1099;104304;-79
2021/12/03 09:55:23;;;;;;;10.50;4.70;;;;;;;10.86;61.34;99198.75;126011;1099;104217;-79
2021/12/03 09:58:18;;;;;;;11.80;4.87;;;;;;;10.96;61.14;99188.41;125117;1102;104322;-79
2021/12/03 10:01:10;;;;;;;13.60;5.40;;;;;;;11.00;61.40;99178.84;125180;1102;104175;-79
2021/12/03 10:04:40;;;;;;;13.83;4.80;;;;;;;10.99;61.10;99189.33;125248;1102;104341;-81
2021/12/03 10:20:19;;;;;;;11.70;4.70;;;;;;;11.26;59.64;99191.39;125103;1099;110848;-79
2021/12/03 10:29:59;;;;;;;11.30;4.47;;;;;;;11.62;59.02;99196.16;125819;1099;102249;-78
2021/12/03 10:36:55;;;;;;;9.33;4.50;;;;;;;11.84;58.78;99209.53;124921;1105;104275;-80
2021/12/03 10:39:44;;;;;;;11.03;4.43;;;;;;;11.91;58.70;99199.98;124835;1105;104174;-80
2021/12/03 10:45:41;;;;;;;14.63;4.57;;;;;;;11.98;57.71;99244.77;124850;1106;104240;-80
2021/12/03 10:48:50;;;;;;;;;;;;;;;;;;;;;
2021/12/03 10:51:55;;;;;;;18.40;7.20;;;;;;;12.08;56.56;99240.48;124779;1102;104082;-81
2021/12/03 10:55:12;;;;;;;20.67;6.80;;;;;;;12.05;56.75;99245.70;124865;1102;104150;-80
2021/12/03 11:30:25;;;;;;;18.63;7.33;;;;;;;12.40;55.41;99272.33;125087;1102;103100;-81
2021/12/03 14:09:24;;;;;;;36.43;18.53;;;;;;;7.05;64.25;99642.81;125739;1099;104393;-80
2021/12/03 14:42:27;;;;;;;39.43;18.03;;;;;;;6.50;65.50;99730.28;125072;1102;104203;-81
2021/12/03 14:45:13;;;;;;;30.80;15.47;;;;;;;6.47;66.02;99737.98;126022;1099;104191;-80
2021/12/03 14:48:26;;;;;;;34.37;15.27;;;;;;;6.45;66.47;99737.92;126158;1099;104178;-81
2021/12/03 14:51:46;;;;;;;36.10;13.13;;;;;;;6.33;65.82;99742.64;126068;1099;104275;-81
2021/12/03 14:54:44;;;;;;;29.00;13.67;;;;;;;6.15;66.74;99749.70;125461;1097;104158;-80
2021/12/03 14:57:37;;;;;;;29.03;12.23;;;;;;;6.03;66.81;99750.97;126038;1099;104166;-80
2021/12/03 15:00:19;;;;;;;26.23;11.33;;;;;;;5.95;66.82;99752.31;125874;1099;104182;-81
2021/12/03 15:03:27;;;;;;;25.37;11.53;;;;;;;5.86;67.86;99758.04;126006;1099;102573;-81
2021/12/03 15:06:19;;;;;;;27.63;11.40;;;;;;;5.78;67.03;99766.33;126160;1099;104381;-80
2021/12/03 15:08:58;;;;;;;22.87;11.10;;;;;;;5.73;68.07;99773.94;126183;1099;102596;-80
2021/12/03 15:23:16;;;;;;;22.53;11.07;;;;;;;5.48;68.02;99814.50;125445;1099;104152;-82
2021/12/03 15:26:18;;;;;;;22.63;9.50;;;;;;;5.48;68.49;99824.03;125938;1099;104159;-82
2021/12/03 15:31:51;;;;;;;20.17;9.58;;;;;;;5.43;68.18;99822.94;125599;1099;104175;-81
2021/12/03 15:34:40;;;;;;;21.20;9.33;;;;;;;5.42;68.11;99828.95;125869;1099;119093;-80
2021/12/03 15:40:20;;;;;;;14.70;6.63;;;;;;;5.32;68.00;99843.27;125789;1099;104255;-81
2021/12/03 15:57:44;;;;;;;10.73;4.90;;;;;;;5.08;68.09;99889.80;125187;1099;104214;-81
2021/12/03 16:08:55;;;;;;;12.17;5.10;;;;;;;4.97;67.92;99913.60;125611;1099;104172;-81
2021/12/03 16:11:36;;;;;;;13.47;5.70;;;;;;;4.94;68.60;99923.85;125074;1099;104149;-82
2021/12/03 16:51:07;;;;;;;12.17;5.40;;;;;;;4.04;70.27;100009.33;124912;1099;104178;-82
2021/12/03 16:53:38;;;;;;;12.73;5.60;;;;;;;3.98;70.99;100021.09;124972;1099;104440;-81
2021/12/03 16:56:13;;;;;;;9.50;4.90;;;;;;;3.90;70.42;100029.34;125014;1099;104172;-81
2021/12/03 16:58:45;;;;;;;13.07;5.70;;;;;;;3.85;70.94;100023.02;125605;1099;104641;-80
2021/12/03 17:01:24;;;;;;;9.70;5.17;;;;;;;3.80;71.46;100019.25;125722;1099;104331;-81
2021/12/03 17:03:59;;;;;;;12.63;5.43;;;;;;;3.76;71.79;100025.98;125723;1098;104146;-81
2021/12/03 17:12:23;;;;;;;13.58;6.37;;;;;;;3.69;71.55;100038.53;125769;1099;104175;-80
2021/12/03 17:29:56;;;;;;;15.63;6.37;;;;;;;3.63;73.09;100054.67;125709;1099;104179;-80
2021/12/03 17:49:41;;;;;;;11.13;5.00;;;;;;;3.54;75.22;100108.64;125148;1102;104149;-79
2021/12/03 17:55:25;;;;;;;12.30;5.10;;;;;;;3.47;73.74;100102.18;125133;1102;104146;-80
2021/12/03 17:58:00;;;;;;;12.37;5.03;;;;;;;3.48;73.60;100116.06;125186;1102;104676;-80
2021/12/03 18:00:38;;;;;;;12.73;5.40;;;;;;;3.48;73.63;100116.95;125023;1102;104277;-79
2021/12/03 18:03:16;;;;;;;13.67;5.80;;;;;;;3.46;74.62;100120.25;124900;1102;104159;-79
2021/12/03 18:08:45;;;;;;;12.97;5.17;;;;;;;3.39;73.97;100121.59;125091;1102;104172;-80
2021/12/03 18:11:44;;;;;;;9.97;4.97;;;;;;;3.40;74.47;100116.50;125144;1102;104249;-80
2021/12/03 18:17:28;;;;;;;11.33;5.30;;;;;;;3.40;74.45;100141.55;125101;1102;104232;-80
2021/12/03 18:48:50;;;;;;;13.53;6.10;;;;;;;3.44;73.77;100202.28;124960;1102;104650;-81
2021/12/03 18:51:33;;;;;;;12.30;5.73;;;;;;;3.40;74.08;100207.28;125122;1102;104249;-81
2021/12/03 18:56:51;;;;;;;13.23;5.83;;;;;;;3.42;73.91;100220.34;125162;1102;104194;-80
2021/12/03 18:59:26;;;;;;;13.93;5.83;;;;;;;3.41;73.87;100228.92;125184;1102;104251;-80
2021/12/03 19:01:59;;;;;;;12.60;6.13;;;;;;;3.40;73.56;100228.03;125134;1102;109052;-81
2021/12/03 19:04:34;;;;;;;14.17;6.40;;;;;;;3.41;74.01;100231.52;125212;1102;104150;-80